Time;durP1;ratioP1;P1;durP2;ratioP2;P2;SDS_P1;SDS_P2;PMS_P1;PMS_P2;Temp;Humidity;BMP_temperature;BMP_pressure;BME280_temperature;BME280_humidity;BME280_pressure;Samples;Min_cycle;Max_cycle;Signal;HPM_P1;HPM_P2
2022/08/12 00:44:59;;;;;;;6.30;5.60;;;27.90;1.00;;;;;;5113975;28;20047;-50
2022/08/12 00:47:24;;;;;;;5.35;4.85;;;27.80;1.00;;;;;;5114619;28;20030;-49
2022/08/12 00:49:51;;;;;;;4.93;4.45;;;27.80;1.00;;;;;;5110318;28;20036;-50
2022/08/12 00:52:18;;;;;;;5.43;4.07;;;27.70;1.00;;;;;;5114688;28;20028;-54
2022/08/12 00:54:46;;;;;;;5.05;3.72;;;27.70;1.00;;;;;;5113568;28;20039;-50
2022/08/12 00:57:16;;;;;;;4.22;3.72;;;27.70;1.00;;;;;;5114802;28;20194;-54
2022/08/12 00:59:44;;;;;;;5.03;3.50;;;27.70;1.00;;;;;;5095134;28;20032;-52
2022/08/12 01:02:14;;;;;;;6.85;3.20;;;27.70;1.00;;;;;;5096137;28;20453;-54
2022/08/12 01:13:00;;;;;;;3.85;2.55;;;27.40;1.00;;;;;;5111829;28;20034;-52
2022/08/12 01:15:27;;;;;;;3.95;2.47;;;27.50;1.00;;;;;;5110248;28;20540;-52
2022/08/12 01:17:53;;;;;;;6.50;2.22;;;27.50;1.00;;;;;;5113478;28;20030;-51
2022/08/12 01:21:03;;;;;;;5.40;2.58;;;27.50;1.00;;;;;;5111794;28;20035;-55
2022/08/12 01:23:32;;;;;;;3.63;2.40;;;27.40;1.00;;;;;;5026457;28;20149;-51
2022/08/12 01:26:01;;;;;;;2.92;2.45;;;27.30;1.00;;;;;;5100976;28;20012;-52
2022/08/12 01:28:29;;;;;;;2.67;2.40;;;27.00;1.00;;;;;;5110038;28;20342;-55
2022/08/12 01:30:58;;;;;;;3.38;2.20;;;27.10;1.00;;;;;;5111904;27;20338;-54
2022/08/12 01:33:28;;;;;;;3.42;2.05;;;27.10;1.00;;;;;;5112776;28;20031;-50
2022/08/12 01:36:01;;;;;;;3.90;2.58;;;27.40;1.00;;;;;;5112413;28;20023;-52
2022/08/12 01:38:32;;;;;;;4.15;2.47;;;27.40;1.00;;;;;;5111809;28;20066;-55
2022/08/12 01:41:00;;;;;;;4.53;2.70;;;27.40;1.00;;;;;;5112833;28;20023;-52
2022/08/12 01:43:27;;;;;;;5.57;2.67;;;27.30;1.00;;;;;;5111657;28;20047;-54
2022/08/12 01:46:04;;;;;;;2.95;2.17;;;27.20;1.00;;;;;;5112145;28;20526;-52
2022/08/12 01:49:01;;;;;;;2.78;2.30;;;27.20;1.00;;;;;;5112123;28;20035;-51
2022/08/12 01:51:42;;;;;;;4.05;2.35;;;27.10;1.00;;;;;;5104052;28;20035;-54
2022/08/12 01:54:12;;;;;;;2.60;2.40;;;27.10;1.00;;;;;;5112141;28;20031;-51
2022/08/12 01:56:42;;;;;;;4.18;2.47;;;27.10;1.00;;;;;;5112949;28;20031;-50
2022/08/12 02:01:57;;;;;;;4.93;2.53;;;27.10;1.00;;;;;;5109446;28;20376;-51
2022/08/12 02:13:14;;;;;;;5.10;2.22;;;27.00;1.00;;;;;;5113556;28;20122;-55
2022/08/12 02:15:43;;;;;;;2.95;1.92;;;26.90;1.00;;;;;;5111553;28;20164;-54
2022/08/12 02:18:32;;;;;;;2.42;1.90;;;27.00;1.00;;;;;;5112279;28;20075;-52
2022/08/12 02:21:04;;;;;;;3.75;2.00;;;26.90;1.00;;;;;;5112559;28;20036;-53
2022/08/12 02:23:33;;;;;;;2.28;2.08;;;26.80;1.00;;;;;;5111991;28;20386;-50
2022/08/12 02:26:06;;;;;;;2.33;1.80;;;26.90;1.00;;;;;;5111646;28;20030;-52
2022/08/12 02:28:32;;;;;;;3.97;2.17;;;26.90;1.00;;;;;;5112856;28;20185;-50
2022/08/12 02:31:03;;;;;;;2.58;1.88;;;26.80;1.00;;;;;;5112475;28;20031;-53
2022/08/12 02:33:30;;;;;;;2.70;1.52;;;26.70;1.00;;;;;;5112906;28;20020;-55
2022/08/12 02:36:03;;;;;;;2.65;1.70;;;26.70;1.00;;;;;;5112115;28;20100;-54
2022/08/12 02:38:30;;;;;;;2.57;1.87;;;26.70;1.00;;;;;;5112703;28;20527;-53
2022/08/12 02:40:58;;;;;;;2.08;1.85;;;26.60;1.00;;;;;;5108073;28;20054;-56
2022/08/12 02:43:41;;;;;;;2.10;1.73;;;26.60;1.00;;;;;;5111029;28;20382;-56
2022/08/12 02:46:13;;;;;;;1.73;1.57;;;26.70;1.00;;;;;;5102190;28;20027;-54
2022/08/12 02:48:50;;;;;;;2.05;1.80;;;26.60;1.00;;;;;;5111290;28;20035;-52
2022/08/12 02:51:23;;;;;;;2.90;1.95;;;26.60;1.00;;;;;;5111609;28;20030;-51
2022/08/12 02:53:50;;;;;;;2.00;1.55;;;26.50;1.00;;;;;;5112537;28;20461;-55
2022/08/12 02:56:17;;;;;;;5.55;2.15;;;26.60;1.00;;;;;;5100199;28;20097;-53
2022/08/12 02:58:45;;;;;;;2.25;1.70;;;26.40;1.00;;;;;;5110127;28;20053;-55
2022/08/12 03:01:11;;;;;;;3.38;1.58;;;26.40;1.00;;;;;;5109978;28;20024;-53
2022/08/12 03:03:38;;;;;;;2.35;2.03;;;26.40;1.00;;;;;;5111539;28;20385;-50
2022/08/12 03:06:22;;;;;;;3.53;2.00;;;26.40;1.00;;;;;;5111640;28;20574;-53
2022/08/12 03:08:51;;;;;;;2.22;1.67;;;26.50;1.00;;;;;;5112275;28;20032;-53
2022/08/12 03:11:58;;;;;;;2.22;1.63;;;26.50;1.00;;;;;;5111328;28;20111;-55
2022/08/12 03:14:26;;;;;;;2.67;1.83;;;26.60;1.00;;;;;;5111355;28;20524;-54
2022/08/12 03:17:33;;;;;;;2.70;1.70;;;26.50;1.00;;;;;;5111337;28;20032;-55
2022/08/12 03:19:59;;;;;;;3.97;1.98;;;26.40;1.00;;;;;;5104533;28;20500;-54
2022/08/12 03:22:25;;;;;;;2.88;2.50;;;26.50;1.00;;;;;;5110409;28;20532;-54
2022/08/12 03:24:52;;;;;;;2.00;1.80;;;26.40;1.00;;;;;;5112013;28;20123;-56
2022/08/12 03:27:18;;;;;;;2.08;1.80;;;26.40;1.00;;;;;;5111698;28;20027;-56
2022/08/12 03:29:46;;;;;;;3.55;2.42;;;26.50;1.00;;;;;;5111262;28;20035;-53
2022/08/12 03:32:13;;;;;;;2.70;1.75;;;26.50;1.00;;;;;;5111003;28;20538;-55
2022/08/12 03:34:40;;;;;;;2.22;1.70;;;26.50;1.00;;;;;;5112204;28;20406;-54
2022/08/12 03:37:07;;;;;;;3.65;2.03;;;26.50;1.00;;;;;;5111552;28;20134;-52
2022/08/12 03:42:32;;;;;;;3.10;2.05;;;26.40;1.00;;;;;;5100344;28;20465;-55
2022/08/12 04:01:57;;;;;;;4.45;2.10;;;26.30;1.00;;;;;;5114658;28;20418;-51
2022/08/12 04:04:33;;;;;;;2.83;2.22;;;26.30;1.00;;;;;;5115621;28;20131;-54
2022/08/12 04:07:06;;;;;;;4.30;2.30;;;26.20;1.00;;;;;;5113465;28;20023;-51
2022/08/12 04:09:33;;;;;;;3.05;2.33;;;26.00;1.00;;;;;;5115535;28;20073;-55
2022/08/12 04:14:43;;;;;;;4.32;2.08;;;26.00;1.00;;;;;;5116284;28;20028;-54
2022/08/12 04:17:10;;;;;;;2.13;2.03;;;26.20;1.00;;;;;;5114673;28;20032;-53
2022/08/12 04:19:37;;;;;;;2.35;2.15;;;26.20;1.00;;;;;;5115427;28;20028;-56
2022/08/12 04:22:02;;;;;;;2.67;2.47;;;26.10;1.00;;;;;;5114821;28;20046;-55
2022/08/12 04:24:30;;;;;;;3.63;2.53;;;26.00;1.00;;;;;;5115158;28;20040;-54
2022/08/12 04:26:55;;;;;;;4.30;2.20;;;26.10;1.00;;;;;;5114281;28;20537;-51
2022/08/12 04:29:22;;;;;;;4.30;2.25;;;26.10;1.00;;;;;;5100948;28;20023;-50
2022/08/12 04:31:48;;;;;;;2.92;2.10;;;26.10;1.00;;;;;;5096424;28;20038;-51
2022/08/12 04:34:15;;;;;;;2.60;2.03;;;26.10;1.00;;;;;;5114308;28;20023;-55
2022/08/12 04:36:42;;;;;;;3.42;2.20;;;26.10;1.00;;;;;;5114492;28;20019;-52
2022/08/12 04:39:09;;;;;;;2.70;2.17;;;26.10;1.00;;;;;;5114995;28;20496;-50
2022/08/12 04:41:36;;;;;;;2.72;2.08;;;26.00;1.00;;;;;;5105800;28;20035;-54
2022/08/12 04:44:06;;;;;;;4.55;2.30;;;26.10;1.00;;;;;;5109503;28;20108;-49
2022/08/12 04:46:32;;;;;;;2.58;2.25;;;26.00;1.00;;;;;;5113813;28;20122;-52
2022/08/12 04:48:59;;;;;;;2.38;2.05;;;26.00;1.00;;;;;;5114960;28;20099;-51
2022/08/12 04:51:26;;;;;;;2.00;1.90;;;25.90;1.00;;;;;;5113931;28;20048;-53
2022/08/12 04:53:52;;;;;;;3.22;1.70;;;26.00;1.00;;;;;;5114760;28;20437;-52
2022/08/12 04:56:18;;;;;;;2.88;2.00;;;26.00;1.00;;;;;;5112612;28;20049;-53
2022/08/12 04:58:43;;;;;;;3.05;2.72;;;26.00;1.00;;;;;;5111981;28;20050;-54
2022/08/12 05:01:10;;;;;;;5.00;2.15;;;26.00;1.00;;;;;;5096249;28;20031;-51
2022/08/12 05:03:36;;;;;;;2.60;2.20;;;26.00;1.00;;;;;;5113012;28;20063;-51
2022/08/12 05:06:06;;;;;;;2.20;1.92;;;26.00;1.00;;;;;;5114406;28;20121;-50
2022/08/12 05:08:33;;;;;;;2.63;1.98;;;25.90;1.00;;;;;;5094942;28;20053;-52
2022/08/12 05:10:58;;;;;;;2.45;2.25;;;26.10;1.00;;;;;;5114454;28;20072;-55
2022/08/12 05:13:33;;;;;;;4.47;2.40;;;26.00;1.00;;;;;;5112912;28;20107;-54
2022/08/12 05:15:59;;;;;;;2.65;2.20;;;26.00;1.00;;;;;;5105074;28;20172;-51
2022/08/12 05:18:26;;;;;;;3.95;2.05;;;26.00;1.00;;;;;;5113377;28;20377;-52
2022/08/12 05:20:52;;;;;;;2.10;1.90;;;26.10;1.00;;;;;;5114360;28;20474;-54
2022/08/12 05:23:19;;;;;;;3.05;2.10;;;26.00;1.00;;;;;;5113139;28;20027;-54
2022/08/12 05:25:47;;;;;;;2.00;1.80;;;26.00;1.00;;;;;;5114224;28;20102;-54
2022/08/12 05:28:14;;;;;;;2.50;2.30;;;26.10;1.00;;;;;;5113474;28;20019;-54
2022/08/12 05:30:41;;;;;;;4.97;2.15;;;26.00;1.00;;;;;;5114010;28;20047;-51
2022/08/12 05:33:07;;;;;;;1.90;1.80;;;26.10;1.00;;;;;;5113011;28;20106;-52
2022/08/12 05:35:35;;;;;;;2.50;1.88;;;26.00;1.00;;;;;;5113949;28;20084;-54
2022/08/12 05:40:47;;;;;;;2.60;2.00;;;26.10;1.00;;;;;;5107066;28;20038;-51
2022/08/12 05:43:13;;;;;;;4.13;2.03;;;26.10;1.00;;;;;;5112652;28;20510;-53
2022/08/12 05:45:39;;;;;;;3.15;1.83;;;26.10;1.00;;;;;;5113706;28;20099;-53
2022/08/12 05:48:05;;;;;;;4.05;2.10;;;26.20;1.00;;;;;;5112633;28;20103;-55
2022/08/12 05:50:31;;;;;;;3.85;2.40;;;26.10;1.00;;;;;;5103126;28;20073;-54
2022/08/12 05:52:57;;;;;;;4.97;2.05;;;26.20;1.00;;;;;;5113642;28;20491;-55
2022/08/12 05:55:22;;;;;;;3.50;2.15;;;26.10;1.00;;;;;;5113025;28;20028;-50
2022/08/12 05:57:54;;;;;;;2.45;1.73;;;26.10;1.00;;;;;;5113643;28;20062;-55
2022/08/12 06:00:22;;;;;;;4.63;2.03;;;26.10;1.00;;;;;;5112844;28;20034;-50
2022/08/12 06:02:48;;;;;;;2.88;2.47;;;26.20;1.00;;;;;;5113366;28;20024;-54
2022/08/12 06:05:13;;;;;;;5.72;2.30;;;26.20;1.00;;;;;;5112375;28;20118;-54
2022/08/12 06:07:44;;;;;;;3.95;2.40;;;26.20;1.00;;;;;;5113513;28;20019;-54
2022/08/12 06:10:10;;;;;;;4.60;2.38;;;26.20;1.00;;;;;;5107603;28;20012;-54
2022/08/12 06:12:36;;;;;;;4.18;2.00;;;26.20;1.00;;;;;;5103339;28;20028;-51
2022/08/12 06:15:03;;;;;;;3.15;2.13;;;26.20;1.00;;;;;;5112214;28;20176;-53
2022/08/12 06:17:29;;;;;;;1.92;1.70;;;26.20;1.00;;;;;;5111846;28;20015;-55
2022/08/12 06:19:57;;;;;;;2.83;2.13;;;26.10;1.00;;;;;;5112411;28;20106;-53
2022/08/12 06:22:24;;;;;;;3.25;2.05;;;26.20;1.00;;;;;;5112991;28;20031;-51
2022/08/12 06:24:52;;;;;;;4.13;2.13;;;26.20;1.00;;;;;;5112494;28;20039;-52
2022/08/12 06:27:18;;;;;;;4.60;1.70;;;26.20;1.00;;;;;;5098812;28;20011;-53
2022/08/12 06:29:44;;;;;;;7.30;2.67;;;26.20;1.00;;;;;;5111843;28;20024;-54
2022/08/12 06:32:09;;;;;;;4.25;2.33;;;26.20;1.00;;;;;;5076110;28;20042;-54
2022/08/12 06:34:35;;;;;;;5.43;2.10;;;26.30;1.00;;;;;;5103348;28;20036;-51
2022/08/12 06:37:01;;;;;;;3.78;2.00;;;26.40;1.00;;;;;;5112766;28;20027;-54
2022/08/12 06:39:27;;;;;;;4.90;2.20;;;26.40;1.00;;;;;;5112158;28;20522;-55
2022/08/12 06:44:38;;;;;;;2.65;2.10;;;26.40;1.00;;;;;;5111833;28;20375;-51
2022/08/12 06:47:03;;;;;;;3.70;2.20;;;26.30;1.00;;;;;;5110697;28;20023;-51
2022/08/12 06:49:33;;;;;;;1.95;1.77;;;26.30;1.00;;;;;;5111544;28;20115;-54
2022/08/12 06:51:59;;;;;;;4.63;2.20;;;26.40;1.00;;;;;;5112412;28;20012;-53
2022/08/12 06:54:25;;;;;;;7.30;2.58;;;26.40;1.00;;;;;;5111530;28;20042;-53
2022/08/12 06:56:51;;;;;;;2.63;2.17;;;26.40;1.00;;;;;;5112424;28;20097;-52
2022/08/12 06:59:20;;;;;;;3.38;2.10;;;26.40;1.00;;;;;;5111706;28;20031;-55
2022/08/12 07:01:46;;;;;;;3.53;2.13;;;26.50;1.00;;;;;;5108084;28;20190;-50
2022/08/12 07:04:13;;;;;;;4.90;3.03;;;26.30;1.00;;;;;;5106981;28;20145;-56
2022/08/12 07:06:39;;;;;;;4.35;2.55;;;26.40;1.00;;;;;;5106934;28;20406;-55
2022/08/12 07:09:06;;;;;;;4.65;2.47;;;26.30;1.00;;;;;;5111381;28;20027;-54
2022/08/12 07:11:32;;;;;;;6.05;2.22;;;26.30;1.00;;;;;;5112230;28;20024;-54
2022/08/12 07:14:01;;;;;;;3.38;2.45;;;26.30;1.00;;;;;;5107576;28;20027;-53
2022/08/12 07:16:50;;;;;;;4.78;2.58;;;26.40;1.00;;;;;;5080076;28;20131;-53
2022/08/12 07:19:12;;;;;;;5.45;2.30;;;26.50;1.00;;;;;;5097517;28;20069;-51
2022/08/12 07:21:38;;;;;;;1.90;1.80;;;26.60;1.00;;;;;;5112060;28;20031;-55
2022/08/12 07:24:04;;;;;;;3.83;2.40;;;26.60;1.00;;;;;;5111063;28;20122;-50
2022/08/12 07:26:30;;;;;;;2.28;2.00;;;26.70;1.00;;;;;;5112116;28;20110;-51
2022/08/12 07:28:55;;;;;;;5.63;2.40;;;26.50;1.00;;;;;;5111540;28;20138;-55
2022/08/12 07:31:21;;;;;;;6.35;2.53;;;26.60;1.00;;;;;;5118022;28;20019;-55
2022/08/12 07:33:48;;;;;;;6.63;2.25;;;26.50;1.00;;;;;;5118753;28;20067;-56
2022/08/12 07:36:14;;;;;;;5.68;2.20;;;26.70;1.00;;;;;;5117833;28;20031;-56
2022/08/12 07:38:44;;;;;;;3.35;2.30;;;26.60;1.00;;;;;;5100466;28;20023;-56
2022/08/12 07:41:11;;;;;;;2.33;2.13;;;26.50;1.00;;;;;;5117991;28;20019;-56
2022/08/12 07:43:40;;;;;;;3.45;2.40;;;26.50;1.00;;;;;;5118547;28;20083;-53
2022/08/12 07:46:08;;;;;;;5.18;2.67;;;26.50;1.00;;;;;;5117728;28;20019;-54
2022/08/12 07:48:36;;;;;;;3.40;2.60;;;26.50;1.00;;;;;;5118398;28;20098;-55
2022/08/12 07:51:03;;;;;;;5.93;2.53;;;26.60;1.00;;;;;;5118020;28;20036;-56
2022/08/12 07:53:28;;;;;;;2.33;2.13;;;26.60;1.00;;;;;;5118851;28;20103;-56
2022/08/12 07:55:54;;;;;;;4.38;2.90;;;26.50;1.00;;;;;;5117588;28;20484;-56
2022/08/12 07:58:22;;;;;;;4.68;2.80;;;26.50;1.00;;;;;;5118643;28;20098;-55
2022/08/12 08:00:48;;;;;;;3.50;2.45;;;26.50;1.00;;;;;;5117738;28;20043;-56
2022/08/12 08:03:15;;;;;;;7.15;3.45;;;26.50;1.00;;;;;;5116803;28;20039;-55
2022/08/12 08:05:48;;;;;;;3.15;2.80;;;26.60;1.00;;;;;;5105050;28;20031;-56
2022/08/12 08:08:19;;;;;;;5.38;2.47;;;26.70;1.00;;;;;;5118433;28;20045;-55
2022/08/12 08:10:46;;;;;;;4.00;3.00;;;26.70;1.00;;;;;;5117657;28;20028;-55
2022/08/12 08:13:12;;;;;;;3.97;2.78;;;26.70;1.00;;;;;;5118313;28;20019;-53
2022/08/12 08:15:39;;;;;;;4.63;2.55;;;26.70;1.00;;;;;;5099302;28;20034;-52
2022/08/12 08:18:10;;;;;;;4.47;2.83;;;26.80;1.00;;;;;;5118312;28;20020;-54
2022/08/12 08:20:39;;;;;;;6.72;3.60;;;26.80;1.00;;;;;;5109439;28;20169;-52
2022/08/12 08:23:16;;;;;;;4.60;3.67;;;27.00;1.00;;;;;;5117949;28;20338;-54
2022/08/12 08:25:44;;;;;;;5.43;2.97;;;27.00;1.00;;;;;;5110554;28;20039;-55
2022/08/12 08:28:20;;;;;;;2.97;2.70;;;27.00;1.00;;;;;;5118696;28;20024;-55
2022/08/12 08:30:46;;;;;;;4.03;3.22;;;26.90;1.00;;;;;;5117225;28;20027;-53
2022/08/12 08:33:13;;;;;;;6.88;3.42;;;26.80;1.00;;;;;;5117695;28;20023;-56
2022/08/12 08:35:40;;;;;;;4.35;2.95;;;27.00;1.00;;;;;;5117621;28;20500;-53
2022/08/12 08:38:14;;;;;;;9.13;4.63;;;27.10;1.00;;;;;;5118425;28;20034;-51
2022/08/12 08:43:28;;;;;;;8.57;3.83;;;27.10;1.00;;;;;;5114533;28;20377;-54
2022/08/12 08:45:55;;;;;;;5.07;3.33;;;27.20;1.00;;;;;;5113847;28;20042;-51
2022/08/12 08:48:21;;;;;;;8.07;3.30;;;27.30;1.00;;;;;;5114908;28;20015;-54
2022/08/12 08:50:50;;;;;;;3.50;3.20;;;27.30;1.00;;;;;;5114201;28;20468;-54
2022/08/12 08:53:16;;;;;;;4.18;3.28;;;27.30;1.00;;;;;;5115206;28;20147;-55
2022/08/12 08:55:43;;;;;;;4.07;3.30;;;27.20;1.00;;;;;;5114222;28;20028;-55
2022/08/12 08:58:09;;;;;;;4.32;3.28;;;27.30;1.00;;;;;;5114708;28;20031;-53
2022/08/12 09:00:39;;;;;;;3.88;3.40;;;27.50;1.00;;;;;;5114026;28;20022;-52
2022/08/12 09:03:06;;;;;;;7.00;4.38;;;27.60;1.00;;;;;;5113668;28;20032;-55
2022/08/12 09:05:32;;;;;;;5.07;4.55;;;27.50;1.00;;;;;;5113559;28;20074;-53
2022/08/12 09:08:03;;;;;;;4.82;3.63;;;27.50;1.00;;;;;;5114584;28;20031;-54
2022/08/12 09:10:29;;;;;;;7.65;4.15;;;27.50;1.00;;;;;;5113457;28;20069;-56
2022/08/12 09:15:41;;;;;;;6.80;4.10;;;27.60;1.00;;;;;;5111567;28;20085;-55
2022/08/12 09:18:08;;;;;;;7.50;4.07;;;27.70;1.00;;;;;;5114349;28;20426;-53
2022/08/12 09:20:35;;;;;;;9.80;4.43;;;27.60;1.00;;;;;;5113535;28;20094;-53
2022/08/12 09:23:04;;;;;;;5.97;4.07;;;27.70;1.00;;;;;;5114327;28;20108;-54
2022/08/12 09:25:31;;;;;;;8.57;3.95;;;27.80;1.00;;;;;;5109695;28;20083;-54
2022/08/12 09:28:00;;;;;;;11.27;4.13;;;27.90;1.00;;;;;;5114287;28;20530;-55
2022/08/12 09:30:27;;;;;;;6.93;3.83;;;27.90;1.00;;;;;;5113190;28;20032;-56
2022/08/12 09:32:53;;;;;;;6.57;4.32;;;28.00;1.00;;;;;;5110785;28;20480;-53
2022/08/12 09:35:24;;;;;;;7.20;4.30;;;28.00;1.00;;;;;;5114177;28;20385;-54
2022/08/12 09:37:52;;;;;;;4.90;4.50;;;28.00;1.00;;;;;;5113314;28;20019;-55
2022/08/12 09:40:19;;;;;;;8.07;4.05;;;28.00;1.00;;;;;;5113819;28;20032;-56
2022/08/12 09:45:32;;;;;;;7.80;4.15;;;28.30;1.00;;;;;;5113116;28;20046;-54
2022/08/12 09:48:01;;;;;;;5.95;4.15;;;28.40;1.00;;;;;;5112207;28;20027;-54
2022/08/12 09:50:27;;;;;;;6.57;4.10;;;28.50;1.00;;;;;;5114078;28;20031;-54
2022/08/12 09:53:09;;;;;;;9.65;5.57;;;28.60;1.00;;;;;;5112255;28;20123;-51
2022/08/12 09:55:36;;;;;;;8.57;4.07;;;28.70;1.00;;;;;;5113517;28;20540;-56
2022/08/12 09:58:05;;;;;;;5.40;3.80;;;28.70;1.00;;;;;;5112883;28;20119;-56
2022/08/12 10:00:33;;;;;;;5.30;2.90;;;28.80;1.00;;;;;;5112654;28;20036;-54
2022/08/12 10:03:05;;;;;;;3.72;2.78;;;28.90;1.00;;;;;;5112737;28;20419;-56
2022/08/12 10:05:35;;;;;;;2.97;2.50;;;29.00;1.00;;;;;;5113085;28;20024;-52
2022/08/12 10:08:02;;;;;;;3.58;3.00;;;29.00;1.00;;;;;;5113031;28;20527;-55
2022/08/12 10:10:27;;;;;;;4.53;2.95;;;29.20;1.00;;;;;;5113309;28;20020;-55
2022/08/12 10:15:43;;;;;;;4.45;3.40;;;29.40;1.00;;;;;;5101151;28;20042;-55
2022/08/12 10:18:10;;;;;;;4.47;2.95;;;29.50;1.00;;;;;;5112250;28;20034;-55
2022/08/12 10:20:37;;;;;;;3.72;2.30;;;29.60;1.00;;;;;;5104518;28;20106;-53
2022/08/12 10:23:04;;;;;;;5.32;2.53;;;29.50;1.00;;;;;;5112117;28;20042;-56
2022/08/12 10:30:58;;;;;;;;;;;29.60;1.00;;;;;;5112058;28;20081;-56
2022/08/12 10:33:24;;;;;;;7.50;2.40;;;29.60;1.00;;;;;;5112301;28;20013;-55
2022/08/12 10:35:52;;;;;;;6.82;2.88;;;29.50;1.00;;;;;;5112817;28;20024;-55
2022/08/12 10:38:18;;;;;;;4.47;2.67;;;29.50;1.00;;;;;;5112009;28;20039;-55
2022/08/12 10:43:41;;;;;;;4.97;3.40;;;29.90;1.00;;;;;;5111815;28;20086;-53
2022/08/12 10:46:07;;;;;;;4.57;2.50;;;29.70;1.00;;;;;;5112845;28;20109;-52
2022/08/12 10:48:33;;;;;;;4.68;3.05;;;29.90;1.00;;;;;;5111457;28;20024;-56
2022/08/12 10:51:03;;;;;;;2.75;2.55;;;29.90;1.00;;;;;;5112708;28;20046;-54
2022/08/12 10:53:33;;;;;;;4.90;2.80;;;30.00;1.00;;;;;;5111539;28;20024;-55
2022/08/12 10:55:58;;;;;;;5.07;2.85;;;30.10;1.00;;;;;;5112550;28;20035;-54
2022/08/12 10:58:24;;;;;;;7.05;3.08;;;30.20;1.00;;;;;;5110733;28;20534;-55
2022/08/12 11:00:50;;;;;;;3.00;2.80;;;30.30;1.00;;;;;;5098737;28;20330;-54
2022/08/12 11:03:17;;;;;;;6.45;2.67;;;30.20;1.00;;;;;;5111824;28;20039;-55
2022/08/12 11:05:43;;;;;;;3.47;2.90;;;30.30;1.00;;;;;;5111509;28;20446;-55
2022/08/12 11:08:11;;;;;;;4.90;2.90;;;30.40;1.00;;;;;;5111346;28;20047;-57
2022/08/12 11:10:37;;;;;;;3.90;3.08;;;30.40;1.00;;;;;;5112229;28;20050;-54
2022/08/12 11:13:02;;;;;;;4.18;2.83;;;30.50;1.00;;;;;;5111518;28;20461;-55
2022/08/12 11:15:28;;;;;;;4.57;2.92;;;30.40;1.00;;;;;;5110183;28;20106;-55
2022/08/12 11:17:53;;;;;;;5.53;3.08;;;30.40;1.00;;;;;;5111547;28;20318;-52
2022/08/12 11:20:19;;;;;;;10.48;3.10;;;30.50;1.00;;;;;;5112135;28;20032;-54
2022/08/12 11:22:59;;;;;;;3.33;3.00;;;30.60;1.00;;;;;;5111603;28;20028;-55
2022/08/12 11:25:24;;;;;;;4.22;3.08;;;30.70;1.00;;;;;;5112213;28;20077;-56
2022/08/12 11:27:50;;;;;;;6.13;2.85;;;30.80;1.00;;;;;;5103845;28;20380;-54
2022/08/12 11:30:16;;;;;;;3.78;2.90;;;30.70;1.00;;;;;;5112145;28;20031;-55
2022/08/12 11:32:41;;;;;;;6.40;2.80;;;30.90;1.00;;;;;;5092876;28;20016;-54
2022/08/12 11:35:08;;;;;;;3.45;3.10;;;31.00;1.00;;;;;;5112170;28;20377;-53
2022/08/12 11:37:36;;;;;;;4.15;2.65;;;30.90;1.00;;;;;;5111000;28;20069;-53
2022/08/12 11:40:02;;;;;;;4.78;2.88;;;31.00;1.00;;;;;;5111963;28;20020;-55
2022/08/12 11:42:28;;;;;;;3.40;3.03;;;31.20;1.00;;;;;;5109231;28;20077;-56
2022/08/12 11:44:53;;;;;;;4.07;3.20;;;31.10;1.00;;;;;;5111846;28;20059;-56
2022/08/12 11:47:19;;;;;;;6.72;3.35;;;31.30;1.00;;;;;;5111449;28;20019;-54
2022/08/12 11:49:44;;;;;;;3.55;2.90;;;31.40;1.00;;;;;;5094317;28;20045;-54
2022/08/12 11:52:10;;;;;;;5.00;2.88;;;31.70;1.00;;;;;;5112052;28;20015;-54
2022/08/12 11:54:36;;;;;;;10.02;3.28;;;32.00;1.00;;;;;;5111224;28;20134;-55
2022/08/12 11:57:01;;;;;;;3.83;2.72;;;32.40;1.00;;;;;;5111842;28;20016;-56
2022/08/12 11:59:27;;;;;;;3.60;3.30;;;33.20;1.00;;;;;;5111189;28;20058;-56
2022/08/12 12:01:53;;;;;;;3.25;2.90;;;33.00;1.00;;;;;;5111703;28;20015;-53
2022/08/12 12:04:19;;;;;;;5.68;3.13;;;33.00;1.00;;;;;;5111038;28;20438;-54
2022/08/12 12:06:44;;;;;;;5.00;2.63;;;33.10;1.00;;;;;;5111653;28;20069;-53
2022/08/12 12:09:10;;;;;;;3.22;2.95;;;33.70;1.00;;;;;;5111058;28;20050;-54
2022/08/12 12:11:35;;;;;;;3.17;2.85;;;33.70;1.00;;;;;;5102229;28;20031;-54
2022/08/12 12:14:01;;;;;;;3.45;3.15;;;34.30;1.00;;;;;;5110903;28;20028;-56
2022/08/12 12:16:26;;;;;;;7.05;4.00;;;35.40;1.00;;;;;;5112839;28;20020;-54
2022/08/12 12:18:52;;;;;;;7.65;3.67;;;36.40;1.00;;;;;;5115040;28;20094;-55
2022/08/12 12:21:18;;;;;;;5.82;4.10;;;38.50;1.00;;;;;;5115210;28;20111;-56
2022/08/12 12:23:43;;;;;;;8.27;3.72;;;40.20;1.00;;;;;;5115335;28;20099;-56
2022/08/12 12:26:09;;;;;;;6.00;4.50;;;41.20;1.00;;;;;;5087261;28;20032;-56
2022/08/12 12:28:37;;;;;;;5.47;4.07;;;42.50;1.00;;;;;;5110581;28;20028;-56
2022/08/12 12:31:03;;;;;;;3.70;3.50;;;43.30;1.00;;;;;;5095833;28;20381;-56
2022/08/12 12:33:29;;;;;;;4.60;4.22;;;41.60;1.00;;;;;;5115073;28;20039;-54
2022/08/12 12:35:54;;;;;;;4.13;3.80;;;40.10;1.00;;;;;;5114345;28;20031;-57
2022/08/12 12:38:20;;;;;;;5.00;4.10;;;39.00;1.00;;;;;;5115063;28;20016;-57
2022/08/12 12:40:47;;;;;;;4.38;4.03;;;38.60;1.00;;;;;;5114080;28;20031;-56
2022/08/12 12:43:13;;;;;;;5.28;4.18;;;38.00;1.00;;;;;;5114828;28;20074;-58
2022/08/12 12:45:40;;;;;;;5.05;4.60;;;37.20;1.00;;;;;;5114462;28;20088;-54
2022/08/12 12:48:08;;;;;;;4.22;3.90;;;37.40;1.00;;;;;;5114934;28;20096;-56
2022/08/12 12:50:43;;;;;;;5.65;3.90;;;36.60;1.00;;;;;;5109890;28;20047;-57
2022/08/12 12:53:09;;;;;;;4.40;4.07;;;36.80;1.00;;;;;;5114813;28;20062;-56
2022/08/12 12:55:36;;;;;;;4.38;4.15;;;36.60;1.00;;;;;;5114111;28;20028;-54
2022/08/12 12:58:04;;;;;;;4.38;4.00;;;36.70;1.00;;;;;;5114684;28;20023;-57
2022/08/12 13:00:31;;;;;;;8.75;4.15;;;37.30;1.00;;;;;;5106077;28;20472;-55
2022/08/12 13:02:57;;;;;;;6.25;4.30;;;37.40;1.00;;;;;;5114717;28;20073;-57
2022/08/12 13:05:37;;;;;;;4.47;4.18;;;37.30;1.00;;;;;;5113548;28;20043;-55
2022/08/12 13:08:26;;;;;;;4.55;3.95;;;38.00;1.00;;;;;;5112017;28;20388;-55
2022/08/12 13:10:53;;;;;;;4.55;4.22;;;38.60;1.00;;;;;;5107717;28;20123;-56
2022/08/12 13:13:19;;;;;;;4.50;4.30;;;39.10;1.00;;;;;;5108071;28;20039;-57
2022/08/12 13:15:48;;;;;;;4.55;4.22;;;39.10;1.00;;;;;;5112652;28;20381;-58
2022/08/12 13:18:14;;;;;;;5.00;4.60;;;39.70;1.00;;;;;;5114320;28;20077;-57
2022/08/12 13:20:42;;;;;;;4.72;4.45;;;39.90;1.00;;;;;;5113488;28;20050;-54
2022/08/12 13:23:08;;;;;;;4.93;4.63;;;40.70;1.00;;;;;;5114429;28;20170;-56
2022/08/12 13:25:33;;;;;;;6.25;4.55;;;42.10;1.00;;;;;;5113591;28;20134;-57
2022/08/12 13:27:59;;;;;;;5.00;4.50;;;44.10;1.00;;;;;;5094993;28;20015;-58
2022/08/12 13:30:25;;;;;;;5.65;4.40;;;45.60;1.00;;;;;;5113178;28;20035;-56
2022/08/12 13:32:56;;;;;;;4.82;4.53;;;45.80;99.90;;;;;;5114020;28;20019;-56
2022/08/12 13:35:22;;;;;;;4.85;4.45;;;47.00;99.90;;;;;;5113176;28;20480;-57
2022/08/12 13:37:54;;;;;;;5.32;4.10;;;46.90;99.90;;;;;;5113228;28;20034;-57
2022/08/12 13:40:21;;;;;;;4.47;4.07;;;46.20;99.90;;;;;;5112882;28;20031;-57
2022/08/12 13:42:48;;;;;;;4.55;4.32;;;46.00;99.90;;;;;;5113629;28;20068;-58
2022/08/12 13:45:15;;;;;;;4.57;4.38;;;46.20;99.90;;;;;;5106607;28;20115;-57
2022/08/12 13:47:55;;;;;;;4.75;4.45;;;45.50;99.90;;;;;;5099066;28;20027;-58
2022/08/12 13:50:36;;;;;;;5.07;4.55;;;45.50;99.90;;;;;;5102052;28;20110;-57
2022/08/12 13:53:10;;;;;;;4.80;4.40;;;44.00;1.00;;;;;;5097724;28;20030;-56
2022/08/12 13:55:37;;;;;;;5.03;4.43;;;44.70;1.00;;;;;;5113004;28;20080;-58
2022/08/12 13:58:08;;;;;;;4.70;4.40;;;44.50;1.00;;;;;;5113889;28;20431;-57
2022/08/12 14:00:35;;;;;;;4.65;4.07;;;43.60;1.00;;;;;;5112718;28;20019;-58
2022/08/12 14:03:01;;;;;;;8.43;4.53;;;41.90;1.00;;;;;;5110379;28;20027;-57
2022/08/12 14:05:27;;;;;;;4.57;4.18;;;41.10;1.00;;;;;;5112743;28;20131;-56
2022/08/12 14:07:53;;;;;;;5.30;4.55;;;41.60;1.00;;;;;;5113041;28;20111;-58
2022/08/12 14:10:35;;;;;;;4.38;4.07;;;41.70;1.00;;;;;;5112697;28;20065;-57
2022/08/12 14:13:19;;;;;;;4.45;4.25;;;40.80;1.00;;;;;;5100372;28;20468;-56
2022/08/12 14:15:51;;;;;;;5.07;4.20;;;39.40;1.00;;;;;;5112667;28;20419;-55
2022/08/12 14:18:18;;;;;;;4.50;4.30;;;39.00;1.00;;;;;;5113523;28;20024;-56
2022/08/12 14:20:49;;;;;;;4.85;4.60;;;38.60;1.00;;;;;;5111596;28;20073;-56
2022/08/12 14:23:17;;;;;;;4.72;4.32;;;38.40;1.00;;;;;;5112212;28;20028;-56
2022/08/12 14:25:43;;;;;;;4.57;4.22;;;38.30;1.00;;;;;;5112332;28;20040;-57
2022/08/12 14:28:11;;;;;;;4.78;4.40;;;37.90;1.00;;;;;;5112833;28;20076;-55
2022/08/12 14:30:44;;;;;;;5.72;5.10;;;38.00;1.00;;;;;;5104764;28;20110;-56
2022/08/12 14:33:12;;;;;;;5.20;4.88;;;38.20;1.00;;;;;;5112820;28;20016;-53
2022/08/12 14:35:37;;;;;;;5.15;4.78;;;38.60;1.00;;;;;;5111919;28;20111;-55
2022/08/12 14:38:15;;;;;;;7.03;4.75;;;39.50;1.00;;;;;;5094414;28;20110;-54
2022/08/12 14:40:41;;;;;;;4.65;4.25;;;39.00;1.00;;;;;;5111084;28;20027;-57
2022/08/12 14:43:06;;;;;;;4.90;4.45;;;38.30;1.00;;;;;;5112493;28;20081;-56
2022/08/12 14:45:35;;;;;;;4.43;4.10;;;37.60;1.00;;;;;;5111254;28;20451;-55
2022/08/12 14:48:01;;;;;;;4.95;4.40;;;38.10;1.00;;;;;;5112420;28;20046;-57
2022/08/12 14:50:26;;;;;;;4.90;4.60;;;38.10;1.00;;;;;;5111497;28;20059;-56
2022/08/12 14:52:52;;;;;;;5.30;4.53;;;38.40;1.00;;;;;;5112572;28;20020;-57
2022/08/12 14:55:17;;;;;;;4.68;4.45;;;38.70;1.00;;;;;;5111459;28;20579;-54